Time;durP1;ratioP1;P1;durP2;ratioP2;P2;SDS_P1;SDS_P2;PMS_P1;PMS_P2;Temp;Humidity;BMP_temperature;BMP_pressure;BME280_temperature;BME280_humidity;BME280_pressure;Samples;Min_cycle;Max_cycle;Signal;HPM_P1;HPM_P2
2021/07/30 00:01:21;;;;;;;;;0.00;0.00;;;;;27.79;36.70;100313.00;4992368;28;45401;-58
2021/07/30 00:03:47;;;;;;;;;0.00;0.00;;;;;27.80;37.36;100313.91;5069846;27;45482;-58
2021/07/30 00:06:12;;;;;;;;;0.00;0.00;;;;;27.78;37.34;100304.94;5077414;28;45417;-57
2021/07/30 00:08:37;;;;;;;;;0.00;0.00;;;;;27.78;37.31;100310.41;5078620;28;45388;-58
2021/07/30 00:11:03;;;;;;;;;0.00;0.00;;;;;27.79;37.02;100301.22;5078399;28;45440;-57
2021/07/30 00:13:28;;;;;;;;;0.00;0.00;;;;;27.78;36.86;100302.22;5077844;28;45468;-57
2021/07/30 00:15:55;;;;;;;;;0.00;0.00;;;;;27.80;36.76;100300.25;5077890;28;45829;-58
2021/07/30 00:18:20;;;;;;;;;0.00;0.00;;;;;27.77;37.09;100297.72;5078255;28;45759;-58
2021/07/30 00:20:45;;;;;;;;;0.00;0.00;;;;;27.78;37.38;100302.22;5078472;28;45371;-58
2021/07/30 00:23:11;;;;;;;;;0.00;0.00;;;;;27.79;37.48;100296.63;5076533;28;46662;-58
2021/07/30 00:25:36;;;;;;;;;0.00;0.00;;;;;27.78;36.94;100299.47;5078070;28;45486;-58
2021/07/30 00:28:02;;;;;;;;;0.00;0.00;;;;;27.80;37.35;100295.66;5077971;28;45480;-58
2021/07/30 00:30:27;;;;;;;;;0.00;0.00;;;;;27.80;36.87;100292.06;5078249;28;45588;-58
2021/07/30 00:32:53;;;;;;;;;0.00;0.00;;;;;27.81;37.34;100294.66;5059741;28;45485;-57
2021/07/30 00:35:19;;;;;;;;;0.00;0.00;;;;;27.80;37.38;100292.91;5078210;28;45791;-58
2021/07/30 00:37:44;;;;;;;;;0.00;0.00;;;;;27.81;37.34;100282.88;5078149;28;45551;-58
2021/07/30 00:40:10;;;;;;;;;0.00;0.00;;;;;27.81;36.65;100288.31;5060000;28;45500;-58
2021/07/30 00:42:36;;;;;;;;;0.00;0.00;;;;;27.80;37.48;100286.59;5077501;28;45536;-58
2021/07/30 00:45:02;;;;;;;;;0.00;0.00;;;;;27.81;37.48;100283.72;5077780;28;45397;-58
2021/07/30 00:47:30;;;;;;;;;0.00;0.00;;;;;27.81;36.86;100277.41;5077889;28;45509;-58
2021/07/30 00:49:56;;;;;;;;;0.00;0.00;;;;;27.81;36.85;100280.13;5077927;28;45400;-56
2021/07/30 00:52:24;;;;;;;;;0.00;0.00;;;;;27.80;37.13;100275.66;5077325;28;45600;-58
2021/07/30 00:54:50;;;;;;;;;0.00;0.00;;;;;27.78;37.38;100278.47;5077684;28;45437;-58
2021/07/30 00:57:16;;;;;;;;;0.00;0.00;;;;;27.81;37.34;100282.88;5077415;28;45475;-55
2021/07/30 00:59:43;;;;;;;;;0.00;0.00;;;;;27.79;37.58;100277.50;5077457;28;45439;-54
2021/07/30 01:02:08;;;;;;;;;0.00;0.00;;;;;27.80;36.90;100272.94;5077062;27;45696;-57
2021/07/30 01:04:34;;;;;;;;;0.00;0.00;;;;;27.78;37.24;100267.56;5058891;28;45410;-58
2021/07/30 01:06:59;;;;;;;;;0.00;0.00;;;;;27.80;36.95;100272.94;5077384;28;45484;-58
2021/07/30 01:09:25;;;;;;;;;0.00;0.00;;;;;27.79;37.42;100265.69;5077061;28;45382;-58
2021/07/30 01:11:50;;;;;;;;;0.00;0.00;;;;;27.78;36.86;100266.69;5076848;28;45807;-58
2021/07/30 01:14:16;;;;;;;;;0.00;0.00;;;;;27.78;37.57;100269.41;5076975;28;45540;-58
2021/07/30 01:16:41;;;;;;;;;0.00;0.00;;;;;27.77;37.51;100270.38;5076782;28;45420;-58
2021/07/30 01:19:20;;;;;;;;;0.00;0.00;;;;;27.79;37.49;100266.56;5077194;28;45634;-58
2021/07/30 01:21:47;;;;;;;;;0.00;0.00;;;;;27.78;37.11;100261.22;5076969;28;45507;-58
2021/07/30 01:24:13;;;;;;;;;0.00;0.00;;;;;27.78;37.01;100258.47;5075815;28;45390;-58
2021/07/30 01:26:38;;;;;;;;;0.00;0.00;;;;;27.78;37.63;100255.75;5076949;28;45576;-58
2021/07/30 01:29:04;;;;;;;;;0.00;0.00;;;;;27.77;37.54;100253.97;5077298;28;45485;-58
2021/07/30 01:31:30;;;;;;;;;0.00;0.00;;;;;27.76;37.49;100257.72;5076810;28;45745;-58
2021/07/30 01:33:55;;;;;;;;;0.00;0.00;;;;;27.76;37.64;100253.13;5077018;28;45603;-58
2021/07/30 01:36:28;;;;;;;;;0.00;0.00;;;;;27.76;37.47;100246.78;5058470;28;45481;-58
2021/07/30 01:38:53;;;;;;;;;0.33;0.00;;;;;27.75;37.40;100245.88;5077090;28;45331;-58
2021/07/30 01:41:19;;;;;;;;;0.00;0.00;;;;;27.74;37.49;100247.75;5058433;28;46286;-58
2021/07/30 01:43:44;;;;;;;;;0.00;0.00;;;;;27.76;37.49;100246.78;5076414;28;45807;-58
2021/07/30 01:46:11;;;;;;;;;0.00;0.00;;;;;27.74;36.95;100245.00;5076412;28;45446;-58
2021/07/30 01:48:36;;;;;;;;;0.00;0.00;;;;;27.66;37.56;100233.72;5076491;28;45394;-57
2021/07/30 01:51:02;;;;;;;;;0.00;0.00;;;;;27.74;37.57;100234.09;5076266;28;45442;-58
2021/07/30 01:53:27;;;;;;;;;0.00;0.00;;;;;27.74;37.63;100244.13;5076176;28;44828;-58
2021/07/30 01:56:04;;;;;;;;;0.00;0.00;;;;;27.73;37.43;100236.91;5076417;28;45479;-58
2021/07/30 01:58:36;;;;;;;;;0.00;0.00;;;;;27.74;37.02;100249.59;5076108;28;45895;-58
2021/07/30 02:01:03;;;;;;;;;0.00;0.00;;;;;27.73;37.32;100246.00;5076323;28;45447;-58
2021/07/30 02:03:28;;;;;;;;;0.00;0.00;;;;;27.72;37.15;100243.38;5076381;27;45811;-57
2021/07/30 02:05:53;;;;;;;;;0.00;0.00;;;;;27.73;36.91;100248.75;5058135;28;45426;-58
2021/07/30 02:08:20;;;;;;;;;0.00;0.00;;;;;27.73;37.54;100237.81;5076851;28;45555;-58
2021/07/30 02:10:46;;;;;;;;;0.00;0.00;;;;;27.72;37.60;100233.31;5041104;28;46686;-58
2021/07/30 02:15:55;;;;;;;;;0.00;0.00;;;;;27.73;37.64;100232.34;5076374;28;45546;-58
2021/07/30 02:18:21;;;;;;;;;0.00;0.00;;;;;27.73;37.14;100226.88;5076403;28;45388;-58
2021/07/30 02:20:48;;;;;;;;;0.00;0.00;;;;;27.73;37.21;100229.63;5075963;28;46110;-58
2021/07/30 02:23:13;;;;;;;;;0.00;0.00;;;;;27.72;37.03;100225.09;5075044;28;45387;-58
2021/07/30 02:25:39;;;;;;;;;0.00;0.00;;;;;27.73;37.02;100221.41;5076885;28;45768;-58
2021/07/30 02:28:04;;;;;;;;;0.00;0.00;;;;;27.72;36.96;100224.25;5075436;28;45489;-58
2021/07/30 02:30:30;;;;;;;;;0.00;0.00;;;;;27.72;36.83;100222.38;5076098;28;45404;-59
2021/07/30 02:32:55;;;;;;;;;0.00;0.00;;;;;27.72;37.05;100214.19;5075991;28;44864;-58
2021/07/30 02:35:20;;;;;;;;;0.00;0.00;;;;;27.71;36.90;100217.00;5076456;28;45480;-57
2021/07/30 02:37:46;;;;;;;;;0.00;0.00;;;;;27.71;37.41;100220.63;5076342;28;45630;-58
2021/07/30 02:40:12;;;;;;;;;0.00;0.00;;;;;27.70;37.63;100215.28;5076036;28;45316;-53
2021/07/30 02:42:39;;;;;;;;;0.33;0.00;;;;;27.70;37.52;100216.13;5075129;28;45476;-54
2021/07/30 02:45:05;;;;;;;;;0.00;0.00;;;;;27.67;37.38;100216.34;5075708;28;45442;-58
2021/07/30 02:47:30;;;;;;;;;0.00;0.00;;;;;27.69;37.43;100211.66;5076102;28;45452;-59
2021/07/30 02:49:56;;;;;;;;;0.00;0.00;;;;;27.69;37.09;100206.19;5075422;28;45463;-59
2021/07/30 02:52:21;;;;;;;;;0.00;0.00;;;;;27.70;36.95;100212.53;5075403;28;45450;-59
2021/07/30 02:54:47;;;;;;;;;0.00;0.00;;;;;27.69;37.48;100206.19;5075403;28;45382;-61
2021/07/30 02:57:13;;;;;;;;;0.00;0.00;;;;;27.69;37.15;100208.94;5075922;28;45488;-59
2021/07/30 02:59:38;;;;;;;;;0.00;0.00;;;;;27.68;37.06;100204.44;5075352;28;45816;-59
2021/07/30 03:02:04;;;;;;;;;0.00;0.00;;;;;27.67;37.69;100208.16;5075394;27;45771;-59
2021/07/30 03:04:29;;;;;;;;;0.00;0.00;;;;;27.67;37.71;100199.06;5075192;28;45420;-58
2021/07/30 03:06:55;;;;;;;;;0.00;0.00;;;;;27.68;37.56;100207.16;5075547;28;45403;-58
2021/07/30 03:09:21;;;;;;;;;0.00;0.00;;;;;27.68;37.03;100218.09;5075665;28;45478;-59
2021/07/30 03:11:47;;;;;;;;;0.00;0.00;;;;;27.66;37.49;100209.13;5075537;28;45373;-59
2021/07/30 03:14:12;;;;;;;;;0.00;0.00;;;;;27.67;37.12;100205.44;5075527;28;45499;-58
2021/07/30 03:16:38;;;;;;;;;0.00;0.00;;;;;27.67;37.19;100216.34;5075345;28;45446;-59
2021/07/30 03:19:03;;;;;;;;;0.00;0.00;;;;;27.65;37.84;100207.38;5075436;28;45753;-59
2021/07/30 03:21:29;;;;;;;;;0.00;0.00;;;;;27.66;37.09;100203.66;5075106;28;45708;-59
2021/07/30 03:23:54;;;;;;;;;0.00;0.00;;;;;27.66;37.20;100205.53;5074894;28;45483;-59
2021/07/30 03:26:20;;;;;;;;;0.00;0.00;;;;;27.65;37.65;100199.19;5074966;28;45436;-54
2021/07/30 03:28:48;;;;;;;;;0.00;0.00;;;;;27.65;37.75;100193.72;5074895;28;45597;-55
2021/07/30 03:31:15;;;;;;;;;0.00;0.00;;;;;27.66;37.31;100197.31;5075428;28;45404;-59
2021/07/30 03:33:40;;;;;;;;;0.00;0.00;;;;;27.65;37.06;100188.25;5075506;28;45744;-59
2021/07/30 03:36:06;;;;;;;;;0.00;0.00;;;;;27.65;37.25;100185.53;5075113;28;45421;-59
2021/07/30 03:38:31;;;;;;;;;0.00;0.00;;;;;27.64;37.15;100197.41;5076196;28;45558;-59
2021/07/30 03:41:01;;;;;;;;;0.00;0.00;;;;;27.65;37.48;100192.81;5078509;28;45443;-59
2021/07/30 03:43:28;;;;;;;;;0.00;0.00;;;;;27.62;37.02;100185.72;5078583;28;45527;-59
2021/07/30 03:45:53;;;;;;;;;0.00;0.00;;;;;27.64;37.75;100191.94;5078824;28;45424;-58
2021/07/30 03:48:18;;;;;;;;;0.00;0.00;;;;;27.63;37.09;100187.47;5078406;28;46930;-59
2021/07/30 03:50:44;;;;;;;;;0.00;0.00;;;;;27.64;37.75;100181.03;5078566;28;45585;-59
2021/07/30 03:53:09;;;;;;;;;0.00;0.00;;;;;27.63;37.63;100190.22;5078418;28;45468;-59
2021/07/30 03:55:36;;;;;;;;;0.00;0.00;;;;;27.62;37.19;100180.25;5078047;28;45870;-59
2021/07/30 03:58:02;;;;;;;;;0.00;0.00;;;;;27.63;37.36;100194.78;5078106;28;45972;-59
2021/07/30 04:00:27;;;;;;;;;0.00;0.00;;;;;27.63;37.70;100192.03;5078337;28;45845;-59
2021/07/30 04:02:52;;;;;;;;;0.00;0.00;;;;;27.61;37.75;100194.91;5078187;27;45416;-57
2021/07/30 04:05:18;;;;;;;;;0.00;0.00;;;;;27.60;37.08;100187.66;5078334;28;45452;-58
2021/07/30 04:07:43;;;;;;;;;0.00;0.00;;;;;27.61;37.30;100185.81;5060101;28;45855;-59
2021/07/30 04:10:09;;;;;;;;;0.00;0.00;;;;;27.59;37.17;100177.75;5077801;28;45434;-57
2021/07/30 04:12:35;;;;;;;;;0.00;0.00;;;;;27.58;37.61;100183.28;5059590;28;45463;-56
2021/07/30 04:15:00;;;;;;;;;0.00;0.00;;;;;27.58;37.10;100186.03;5059683;28;45552;-57
2021/07/30 04:17:26;;;;;;;;;0.00;0.00;;;;;27.57;37.27;100187.00;5077682;28;46035;-59
2021/07/30 04:19:51;;;;;;;;;0.00;0.00;;;;;27.56;37.69;100191.59;5077954;28;45520;-59
2021/07/30 04:22:17;;;;;;;;;0.00;0.00;;;;;27.52;37.20;100179.09;5077991;28;45373;-58
2021/07/30 04:24:42;;;;;;;;;0.00;0.00;;;;;27.53;37.80;100181.75;5076938;28;45413;-59
2021/07/30 04:27:08;;;;;;;;;0.00;0.00;;;;;27.53;37.69;100180.84;5077328;28;45402;-59
2021/07/30 04:29:40;;;;;;;;;0.00;0.00;;;;;27.53;37.50;100178.09;5077776;28;45483;-59
2021/07/30 04:32:09;;;;;;;;;0.00;0.00;;;;;27.52;37.96;100190.03;5078042;28;45443;-59
2021/07/30 04:34:36;;;;;;;;;0.00;0.00;;;;;27.51;37.18;100193.72;5059396;28;45530;-59
2021/07/30 04:37:02;;;;;;;;;0.00;0.00;;;;;27.50;37.38;100189.25;5077166;28;45474;-59
2021/07/30 04:39:27;;;;;;;;;0.00;0.00;;;;;27.51;37.25;100182.78;5077773;28;45574;-59
2021/07/30 04:41:52;;;;;;;;;0.00;0.00;;;;;27.49;37.71;100185.66;5077639;28;45552;-59
2021/07/30 04:44:19;;;;;;;;;0.00;0.00;;;;;27.50;37.11;100192.84;5077458;28;45453;-58
2021/07/30 04:46:44;;;;;;;;;0.00;0.00;;;;;27.48;37.24;100192.06;5077492;28;45934;-59
2021/07/30 04:49:09;;;;;;;;;0.00;0.00;;;;;27.49;37.32;100187.47;5077292;28;45469;-59
2021/07/30 04:51:36;;;;;;;;;0.00;0.00;;;;;27.44;37.17;100178.72;5076627;28;45547;-59
2021/07/30 04:54:01;;;;;;;;;0.00;0.00;;;;;27.47;37.23;100176.69;5077364;28;45430;-59
2021/07/30 04:56:27;;;;;;;;;0.00;0.00;;;;;27.48;37.25;100180.28;5077090;28;45375;-59
2021/07/30 04:58:52;;;;;;;;;0.00;0.00;;;;;27.48;37.90;100177.56;5076924;28;45473;-57
2021/07/30 05:01:18;;;;;;;;;0.00;0.00;;;;;27.48;37.83;100177.56;5076912;28;45391;-57
2021/07/30 05:03:43;;;;;;;;;0.00;0.00;;;;;27.48;37.37;100177.56;5077170;27;45821;-57
2021/07/30 05:06:12;;;;;;;;;0.00;0.00;;;;;27.48;37.28;100177.56;5058874;28;45713;-58
2021/07/30 05:08:37;;;;;;;;;0.00;0.00;;;;;27.48;37.87;100183.00;5059269;28;45996;-57
2021/07/30 05:11:02;;;;;;;;;0.00;0.00;;;;;27.47;37.33;100178.50;5077140;28;45464;-59
2021/07/30 05:13:28;;;;;;;;;0.00;0.00;;;;;27.48;37.88;100177.56;5077117;28;45532;-59
2021/07/30 05:15:55;;;;;;;;;0.00;0.00;;;;;27.46;37.33;100171.31;5076736;28;45942;-59
2021/07/30 05:18:21;;;;;;;;;0.00;0.00;;;;;27.48;37.44;100183.00;5058597;28;45467;-59
2021/07/30 05:20:46;;;;;;;;;0.00;0.00;;;;;27.49;37.67;100179.28;5077154;28;45939;-58
2021/07/30 05:23:11;;;;;;;;;0.00;0.00;;;;;27.50;37.28;100183.78;5059066;28;45405;-58
2021/07/30 05:25:37;;;;;;;;;0.00;0.00;;;;;27.49;37.41;100180.19;5075847;28;45480;-59
2021/07/30 05:28:03;;;;;;;;;0.00;0.00;;;;;27.50;37.44;100186.53;5077446;28;45384;-59
2021/07/30 05:30:29;;;;;;;;;0.00;0.00;;;;;27.50;37.45;100181.06;5077016;28;45689;-59
2021/07/30 05:32:54;;;;;;;;;0.00;0.00;;;;;27.51;37.36;100178.25;5077591;28;45751;-59
2021/07/30 05:35:20;;;;;;;;;0.00;0.00;;;;;27.51;37.77;100183.69;5058532;28;47249;-59
2021/07/30 05:37:45;;;;;;;;;0.00;0.00;;;;;27.53;37.83;100189.03;5076817;28;45993;-59
2021/07/30 05:40:11;;;;;;;;;0.00;0.00;;;;;27.54;37.95;100182.63;5076775;28;45800;-59
2021/07/30 05:42:37;;;;;;;;;0.00;0.00;;;;;27.55;37.84;100187.06;5076498;28;45585;-59
2021/07/30 05:45:02;;;;;;;;;0.00;0.00;;;;;27.55;37.31;100184.34;5076113;28;46122;-56
2021/07/30 05:47:28;;;;;;;;;0.00;0.00;;;;;27.57;37.22;100182.44;5076518;28;45476;-56
2021/07/30 05:49:53;;;;;;;;;0.00;0.00;;;;;27.58;37.32;100183.28;5076649;28;45826;-59
2021/07/30 05:52:20;;;;;;;;;0.00;0.00;;;;;27.59;37.66;100172.28;5076989;28;45530;-58
2021/07/30 05:54:45;;;;;;;;;0.00;0.00;;;;;27.60;37.20;100164.94;5058344;28;46673;-59
2021/07/30 05:57:10;;;;;;;;;0.00;0.00;;;;;27.61;36.99;100159.38;5076342;28;45518;-59
2021/07/30 05:59:36;;;;;;;;;0.00;0.00;;;;;27.56;37.69;100153.34;5058508;28;44823;-58
2021/07/30 06:02:01;;;;;;;;;0.00;0.00;;;;;27.62;37.83;100155.66;5075306;28;45420;-59
2021/07/30 06:04:28;;;;;;;;;0.00;0.00;;;;;27.64;37.76;100150.97;5075855;28;45393;-59
2021/07/30 06:06:53;;;;;;;;;0.00;0.00;;;;;27.66;37.72;100153.63;5058006;28;45369;-59
2021/07/30 06:09:19;;;;;;;;;0.00;0.00;;;;;27.67;37.57;100152.63;5076438;28;45358;-59
2021/07/30 06:11:44;;;;;;;;;0.00;0.00;;;;;27.67;37.71;100150.78;5076049;28;45374;-59
2021/07/30 06:14:10;;;;;;;;;0.00;0.00;;;;;27.69;37.75;100147.94;5075929;28;46097;-59
2021/07/30 06:16:41;;;;;;;;;0.00;0.00;;;;;27.70;36.97;100149.69;5076208;28;45531;-58
2021/07/30 06:19:07;;;;;;;;;0.00;0.00;;;;;27.71;37.07;100144.13;5076167;28;45432;-58
2021/07/30 06:21:33;;;;;;;;;0.00;0.00;;;;;27.70;37.43;100144.22;5075830;28;45373;-61
2021/07/30 06:23:59;;;;;;;;;2.00;2.00;;;;;27.61;36.77;100144.84;5074425;28;46749;-60
2021/07/30 06:26:25;;;;;;;;;5.33;4.00;;;;;27.43;36.71;100145.09;5075783;28;45480;-60
2021/07/30 06:28:51;;;;;;;;;3.67;3.67;;;;;27.27;37.56;100147.94;5075615;28;45401;-60
2021/07/30 06:31:16;;;;;;;;;3.33;3.33;;;;;27.16;37.12;100152.31;5075616;28;45404;-61
2021/07/30 06:33:42;;;;;;;;;2.00;2.00;;;;;27.03;36.98;100147.63;5075425;28;45468;-60
2021/07/30 06:36:07;;;;;;;;;4.33;3.00;;;;;26.94;37.43;100146.38;5075379;28;45456;-62
2021/07/30 06:38:33;;;;;;;;;4.00;4.00;;;;;26.85;37.21;100141.50;5075319;28;45564;-60
2021/07/30 06:40:58;;;;;;;;;3.00;3.00;;;;;26.73;37.83;100142.28;5075369;28;45442;-60
2021/07/30 06:43:24;;;;;;;;;2.67;2.67;;;;;26.62;38.16;100142.06;5074554;28;45995;-60
2021/07/30 06:45:49;;;;;;;;;5.00;5.00;;;;;26.54;38.00;100140.66;5056757;28;45916;-60
2021/07/30 06:48:14;;;;;;;;;6.00;6.00;;;;;26.45;38.10;100140.34;5075294;28;45824;-60
2021/07/30 06:50:40;;;;;;;;;3.00;3.00;;;;;26.42;38.19;100138.69;5074863;28;45496;-60
2021/07/30 06:53:05;;;;;;;;;5.00;5.00;;;;;26.38;38.53;100145.31;5075115;28;45820;-60
2021/07/30 06:55:30;;;;;;;;;5.33;3.67;;;;;26.30;38.23;100136.72;5075056;28;45496;-60
2021/07/30 06:57:56;;;;;;;;;4.00;4.00;;;;;26.24;38.46;100137.06;5076050;28;44921;-60
2021/07/30 07:00:21;;;;;;;;;3.33;2.00;;;;;26.21;38.71;100135.41;5075001;28;45453;-60
2021/07/30 07:02:46;;;;;;;;;4.67;4.67;;;;;26.17;38.98;100138.44;5055981;28;47309;-61
2021/07/30 07:05:13;;;;;;;;;4.00;4.00;;;;;26.12;39.00;100134.13;5074446;28;45502;-60
2021/07/30 07:07:39;;;;;;;;;4.00;4.00;;;;;26.09;39.03;100141.63;5074499;28;45622;-60
2021/07/30 07:10:05;;;;;;;;;5.33;5.00;;;;;26.01;39.13;100141.19;5074777;28;45397;-62
2021/07/30 07:12:30;;;;;;;;;4.00;2.00;;;;;25.94;39.14;100143.44;5055636;28;46848;-61
2021/07/30 07:14:55;;;;;;;;;1.33;1.33;;;;;25.94;39.56;100135.25;5073822;28;45716;-62
2021/07/30 07:17:20;;;;;;;;;3.00;3.00;;;;;25.94;39.53;100133.41;5074445;28;45342;-61
2021/07/30 07:19:47;;;;;;;;;4.67;4.67;;;;;25.98;39.38;100131.38;5074633;28;45392;-61
2021/07/30 07:22:12;;;;;;;;;4.00;4.00;;;;;25.97;39.43;100139.63;5073596;28;45479;-61
2021/07/30 07:24:59;;;;;;;;;4.67;4.67;;;;;25.94;39.91;100148.88;5072408;28;45511;-61
2021/07/30 07:27:25;;;;;;;;;4.67;4.67;;;;;25.88;39.85;100149.22;5074430;28;45452;-61
2021/07/30 07:29:50;;;;;;;;;3.00;3.00;;;;;25.84;40.17;100150.34;5074455;28;45439;-61
2021/07/30 07:32:16;;;;;;;;;3.00;3.00;;;;;25.81;40.24;100151.38;5066552;28;45508;-59
2021/07/30 07:34:41;;;;;;;;;2.33;2.33;;;;;25.81;40.47;100153.25;5073576;28;45403;-60
2021/07/30 07:37:08;;;;;;;;;5.00;5.00;;;;;25.82;40.71;100149.56;5072012;28;45481;-60
2021/07/30 07:39:40;;;;;;;;;3.33;3.33;;;;;25.85;40.31;100154.81;5073375;28;45767;-58
2021/07/30 07:42:05;;;;;;;;;2.33;2.00;;;;;25.90;40.45;100147.31;5073595;28;45612;-61
2021/07/30 07:44:30;;;;;;;;;2.00;2.00;;;;;25.96;40.84;100152.38;5073117;28;45475;-64
2021/07/30 07:46:57;;;;;;;;;2.33;2.00;;;;;26.05;40.86;100143.66;5072926;28;45806;-58
2021/07/30 07:49:24;;;;;;;;;1.00;1.00;;;;;26.13;40.66;100135.00;5072030;28;45441;-59
2021/07/30 07:51:49;;;;;;;;;1.00;1.00;;;;;26.21;40.58;100137.28;5072840;28;46279;-59
2021/07/30 07:54:21;;;;;;;;;1.00;1.00;;;;;26.28;40.54;100128.63;5062503;28;45377;-59
2021/07/30 07:56:46;;;;;;;;;1.00;1.00;;;;;26.33;40.18;100129.22;5067863;27;45583;-59
2021/07/30 07:59:11;;;;;;;;;2.00;2.00;;;;;26.37;40.44;100118.13;5072146;28;45516;-60
2021/07/30 08:01:38;;;;;;;;;1.00;1.00;;;;;26.43;40.29;100124.09;5068603;27;45444;-60
2021/07/30 08:04:03;;;;;;;;;1.67;1.67;;;;;26.49;40.56;100115.53;5064257;28;45455;-61
2021/07/30 08:06:29;;;;;;;;;4.67;1.33;;;;;26.55;40.40;100106.94;5063753;28;45512;-59
2021/07/30 08:08:54;;;;;;;;;0.33;0.33;;;;;26.62;40.44;100106.59;5050067;28;45819;-59
2021/07/30 08:11:19;;;;;;;;;1.00;1.00;;;;;26.67;39.88;100110.78;5055783;28;45392;-59
2021/07/30 08:13:46;;;;;;;;;0.67;0.67;;;;;26.73;40.20;100120.44;5062107;28;45408;-59
2021/07/30 08:16:11;;;;;;;;;0.00;0.00;;;;;26.82;40.24;100117.13;5074399;28;45411;-58
2021/07/30 08:18:37;;;;;;;;;3.33;2.00;;;;;26.87;40.25;100112.25;5071889;27;45477;-58
2021/07/30 08:21:03;;;;;;;;;0.00;0.00;;;;;26.93;40.04;100102.81;5073404;28;45702;-60
2021/07/30 08:23:29;;;;;;;;;0.67;0.67;;;;;26.98;39.40;100102.50;5071337;28;45781;-61
2021/07/30 08:25:55;;;;;;;;;0.00;0.00;;;;;27.03;39.58;100103.09;5073925;28;45488;-59
2021/07/30 08:28:20;;;;;;;;;1.00;0.33;;;;;27.07;39.83;100100.06;5061158;28;45444;-59
2021/07/30 08:30:46;;;;;;;;;0.00;0.00;;;;;27.12;39.70;100091.56;5070326;28;45365;-59
2021/07/30 08:33:11;;;;;;;;;0.00;0.00;;;;;27.17;39.73;100091.25;5071108;27;45420;-59
2021/07/30 08:35:36;;;;;;;;;1.00;0.33;;;;;27.22;39.06;100091.84;5076458;27;45621;-59
2021/07/30 08:38:02;;;;;;;;;0.00;0.00;;;;;27.23;39.47;100080.88;5076544;28;45428;-59
2021/07/30 08:40:32;;;;;;;;;0.67;0.67;;;;;27.30;39.51;100101.31;5075652;28;45359;-59
2021/07/30 08:42:58;;;;;;;;;1.33;0.67;;;;;27.34;39.17;100093.81;5073291;28;45746;-59
2021/07/30 08:45:23;;;;;;;;;1.00;1.00;;;;;27.37;38.89;100096.34;5070421;28;45823;-59
2021/07/30 08:47:50;;;;;;;;;1.33;0.67;;;;;27.39;39.34;100096.22;5076757;28;45749;-59
2021/07/30 08:50:16;;;;;;;;;3.00;0.00;;;;;27.44;38.74;100094.06;5076454;28;45471;-59
2021/07/30 08:52:43;;;;;;;;;0.67;0.67;;;;;27.47;38.75;100082.94;5075398;27;45488;-60
2021/07/30 08:55:09;;;;;;;;;0.33;0.33;;;;;27.50;38.55;100099.13;5076630;28;45512;-59
2021/07/30 08:57:36;;;;;;;;;0.67;0.67;;;;;27.54;38.45;100089.75;5074642;28;45434;-60
2021/07/30 09:00:09;;;;;;;;;1.00;1.00;;;;;27.57;38.42;100084.09;5074935;28;46077;-59
2021/07/30 09:02:35;;;;;;;;;0.00;0.00;;;;;27.60;38.50;100083.88;5075718;28;45448;-59
2021/07/30 09:05:33;;;;;;;;;0.33;0.33;;;;;27.64;38.60;100090.00;5076189;28;46209;-59
2021/07/30 09:08:00;;;;;;;;;0.33;0.33;;;;;27.66;38.94;100077.13;5074395;28;47314;-59
2021/07/30 09:10:30;;;;;;;;;0.00;0.00;;;;;27.69;38.88;100083.25;5076431;27;45681;-60
2021/07/30 09:13:20;;;;;;;;;0.00;0.00;;;;;27.72;38.16;100082.16;5076032;28;45441;-60
2021/07/30 09:15:49;;;;;;;;;1.33;1.33;;;;;27.75;38.45;100076.47;5075768;28;45448;-60
2021/07/30 09:18:39;;;;;;;;;0.00;0.00;;;;;27.78;38.02;100081.75;5075285;28;45370;-60
2021/07/30 09:21:30;;;;;;;;;0.00;0.00;;;;;27.81;38.13;100078.78;5074789;28;46643;-59
2021/07/30 09:24:09;;;;;;;;;0.00;0.00;;;;;27.84;38.66;100088.66;5074781;28;45496;-60
2021/07/30 09:26:44;;;;;;;;;0.00;0.00;;;;;27.86;38.06;100075.75;5033730;28;45467;-60
2021/07/30 09:29:32;;;;;;;;;0.00;0.00;;;;;27.88;38.15;100079.28;5033318;28;45548;-60
2021/07/30 09:32:00;;;;;;;;;0.00;0.00;;;;;27.91;37.92;100084.53;5013704;28;47484;-59
2021/07/30 09:34:39;;;;;;;;;0.67;0.67;;;;;27.92;38.06;100084.44;5015396;28;45490;-60
2021/07/30 09:37:06;;;;;;;;;0.00;0.00;;;;;27.93;38.60;100080.75;5014953;28;45394;-60
2021/07/30 09:39:45;;;;;;;;;0.67;0.67;;;;;27.96;37.92;100087.84;5015167;28;45482;-59
2021/07/30 09:42:12;;;;;;;;;0.00;0.00;;;;;27.96;38.55;100082.38;5021450;28;45413;-59
2021/07/30 09:44:51;;;;;;;;;0.00;0.00;;;;;27.99;37.99;100084.00;5037808;28;45812;-60
2021/07/30 09:47:21;;;;;;;;;0.33;0.33;;;;;28.01;38.66;100082.06;5035055;28;45479;-60
2021/07/30 09:49:56;;;;;;;;;0.00;0.00;;;;;28.02;37.94;100081.94;5034691;28;45411;-60
2021/07/30 09:52:24;;;;;;;;;0.00;0.00;;;;;28.04;38.03;100081.84;5032153;28;45428;-60
2021/07/30 09:54:53;;;;;;;;;0.67;0.67;;;;;28.07;38.55;100087.09;5014921;28;45432;-60
2021/07/30 09:57:21;;;;;;;;;1.00;1.00;;;;;28.08;38.05;100089.72;5030334;28;45544;-59
2021/07/30 09:59:48;;;;;;;;;0.00;0.00;;;;;28.10;38.67;100079.56;5035092;28;45413;-60
2021/07/30 10:02:20;;;;;;;;;0.00;0.00;;;;;28.12;38.45;100077.59;5053004;28;45640;-60
2021/07/30 10:04:48;;;;;;;;;0.00;0.00;;;;;28.15;37.93;100083.81;5054998;28;45692;-59
2021/07/30 10:07:16;;;;;;;;;0.00;0.00;;;;;28.17;38.00;100081.84;5055499;28;45511;-60
2021/07/30 10:09:43;;;;;;;;;0.00;0.00;;;;;28.19;38.55;100085.38;5037960;28;45573;-59
2021/07/30 10:12:11;;;;;;;;;0.00;0.00;;;;;28.20;38.32;100087.09;5035082;28;45386;-60
2021/07/30 10:14:37;;;;;;;;;0.00;0.00;;;;;28.20;37.83;100085.25;5034635;28;45392;-61
2021/07/30 10:17:03;;;;;;;;;0.00;0.00;;;;;28.22;38.19;100076.94;5035239;28;45736;-60
2021/07/30 10:19:32;;;;;;;;;2.67;2.67;;;;;28.23;38.52;100075.97;5015181;28;45815;-59
2021/07/30 10:22:01;;;;;;;;;0.00;0.00;;;;;28.22;38.90;100072.38;5013491;28;45514;-60
2021/07/30 10:24:29;;;;;;;;;1.00;1.00;;;;;28.25;38.95;100080.34;5020286;28;45470;-60
2021/07/30 10:27:00;;;;;;;;;0.00;0.00;;;;;28.26;38.83;100073.03;5054938;28;45455;-59
2021/07/30 10:29:25;;;;;;;;;1.00;1.00;;;;;28.28;38.50;100071.06;5059669;28;45414;-59
2021/07/30 10:31:51;;;;;;;;;0.00;0.00;;;;;28.29;38.76;100067.31;5072737;28;46210;-62
2021/07/30 10:34:18;;;;;;;;;0.33;0.33;;;;;28.31;38.38;100081.75;5069103;27;45586;-58
2021/07/30 10:36:43;;;;;;;;;0.00;0.00;;;;;28.29;37.88;100070.06;5079351;27;45542;-58
2021/07/30 10:39:11;;;;;;;;;0.33;0.33;;;;;28.29;37.93;100072.78;5071643;28;45567;-59
2021/07/30 10:41:39;;;;;;;;;0.00;0.00;;;;;28.29;38.29;100081.00;5072411;28;46143;-58
2021/07/30 10:44:06;;;;;;;;;0.00;0.00;;;;;28.28;38.43;100068.31;5062845;28;45338;-58
2021/07/30 10:46:32;;;;;;;;;1.00;0.00;;;;;28.25;38.36;100063.06;5071292;28;46648;-59
2021/07/30 10:48:57;;;;;;;;;0.00;0.00;;;;;28.26;37.86;100062.09;5073064;28;45418;-59
2021/07/30 10:51:24;;;;;;;;;0.00;0.00;;;;;28.26;37.92;100065.69;5072791;28;47883;-59
2021/07/30 10:54:05;;;;;;;;;0.67;0.67;;;;;28.26;38.15;100064.81;5061610;28;45414;-59
2021/07/30 10:56:33;;;;;;;;;0.00;0.00;;;;;28.26;38.11;100053.88;5066530;28;45346;-59
2021/07/30 10:58:59;;;;;;;;;0.00;0.00;;;;;28.26;38.06;100070.28;5074296;28;45449;-60
2021/07/30 11:01:27;;;;;;;;;0.67;0.00;;;;;28.26;37.90;100071.16;5073395;28;46857;-59
2021/07/30 11:03:52;;;;;;;;;0.00;0.00;;;;;28.26;38.34;100070.28;5073998;28;45459;-59
2021/07/30 11:06:26;;;;;;;;;0.00;0.00;;;;;28.27;37.65;100080.22;5074498;28;45438;-59
2021/07/30 11:09:04;;;;;;;;;0.00;0.00;;;;;28.26;37.70;100078.50;5075866;28;45468;-61
2021/07/30 11:11:51;;;;;;;;;0.00;0.00;;;;;28.25;37.63;100071.25;5074285;28;45953;-60
2021/07/30 11:14:18;;;;;;;;;0.00;0.00;;;;;28.25;37.95;100083.06;5071704;28;45034;-59
2021/07/30 11:16:58;;;;;;;;;0.00;0.00;;;;;28.24;37.54;100075.84;5073196;28;45480;-60
2021/07/30 11:19:26;;;;;;;;;0.00;0.00;;;;;28.24;37.48;100091.41;5073825;28;45394;-60
2021/07/30 11:21:53;;;;;;;;;0.00;0.00;;;;;28.23;37.83;100103.31;5073631;28;45714;-60
2021/07/30 11:24:19;;;;;;;;;0.00;0.00;;;;;28.22;37.51;100096.06;5054135;28;45888;-59
2021/07/30 11:26:45;;;;;;;;;0.00;0.00;;;;;28.21;38.27;100105.28;5073206;28;45476;-59